createdAt,value
2017-03-14T00:00:58.184Z,0
2017-03-14T00:01:59.895Z,0
2017-03-14T00:03:01.473Z,0
2017-03-14T00:04:03.107Z,0
2017-03-14T00:05:04.709Z,0
2017-03-14T00:06:06.379Z,0
2017-03-14T00:07:08.112Z,0
2017-03-14T00:08:09.826Z,0
2017-03-14T00:09:11.458Z,0
2017-03-14T00:10:13.027Z,0
2017-03-14T00:11:14.601Z,0
2017-03-14T00:12:16.232Z,0
2017-03-14T00:13:17.876Z,0
2017-03-14T00:14:19.477Z,0
2017-03-14T00:15:21.158Z,0
2017-03-14T00:16:22.794Z,0
2017-03-14T00:17:24.385Z,0
2017-03-14T00:18:26.034Z,0
2017-03-14T00:19:27.630Z,0
2017-03-14T00:20:29.243Z,0
2017-03-14T00:22:11.672Z,0
2017-03-14T00:23:13.186Z,0
2017-03-14T00:24:14.615Z,0
2017-03-14T00:25:16.136Z,0
2017-03-14T00:26:17.636Z,0
2017-03-14T00:27:19.164Z,0
2017-03-14T00:29:01.367Z,0
2017-03-14T00:30:03.779Z,0
2017-03-14T00:31:05.273Z,0
2017-03-14T00:32:07.015Z,0
2017-03-14T00:33:08.632Z,0
2017-03-14T00:34:10.170Z,0
2017-03-14T00:35:11.723Z,0
2017-03-14T00:36:13.388Z,0
2017-03-14T00:37:15.043Z,0
2017-03-14T00:38:16.665Z,0
2017-03-14T00:39:18.195Z,0
2017-03-14T00:40:19.665Z,0
2017-03-14T00:41:21.158Z,0
2017-03-14T00:42:22.691Z,0
2017-03-14T00:43:24.241Z,0
2017-03-14T00:44:25.966Z,0
2017-03-14T00:45:27.592Z,0
2017-03-14T00:46:29.265Z,0
2017-03-14T00:47:30.917Z,0
2017-03-14T00:48:32.507Z,0
2017-03-14T00:49:34.269Z,0
2017-03-14T00:50:35.961Z,0
2017-03-14T00:51:37.559Z,0
2017-03-14T00:52:39.249Z,0
2017-03-14T00:53:40.861Z,0
2017-03-14T00:54:42.535Z,0
2017-03-14T00:55:44.143Z,0
2017-03-14T00:56:45.780Z,0
2017-03-14T00:57:47.416Z,0
2017-03-14T00:58:49.136Z,0
2017-03-14T00:59:50.804Z,0
2017-03-14T01:00:52.425Z,0
2017-03-14T01:01:54.039Z,0
2017-03-14T01:02:55.698Z,0
2017-03-14T01:03:57.424Z,0
2017-03-14T01:04:59.087Z,0
2017-03-14T01:06:00.744Z,0
2017-03-14T01:07:02.650Z,0
2017-03-14T01:08:04.263Z,0
2017-03-14T01:09:05.914Z,0
2017-03-14T01:10:07.568Z,0
2017-03-14T01:11:09.211Z,0
2017-03-14T01:12:10.835Z,0
2017-03-14T01:13:12.449Z,0
2017-03-14T01:14:14.114Z,0
2017-03-14T01:15:15.731Z,0
2017-03-14T01:16:17.350Z,0
2017-03-14T01:17:18.980Z,0
2017-03-14T01:18:20.599Z,0
2017-03-14T01:19:22.201Z,0
2017-03-14T01:20:23.819Z,0
2017-03-14T01:21:25.392Z,0
2017-03-14T01:22:27.017Z,0
2017-03-14T01:23:28.699Z,0
2017-03-14T01:24:30.251Z,0
2017-03-14T01:25:31.810Z,0
2017-03-14T01:26:33.514Z,0
2017-03-14T01:27:35.155Z,0
2017-03-14T01:28:36.787Z,0
2017-03-14T01:29:38.430Z,0
2017-03-14T01:30:40.045Z,0
2017-03-14T01:31:41.704Z,0
2017-03-14T01:32:43.321Z,0
2017-03-14T01:33:44.999Z,0
2017-03-14T01:34:46.699Z,0
2017-03-14T01:35:48.422Z,0
2017-03-14T01:36:50.061Z,0
2017-03-14T01:37:51.634Z,0
2017-03-14T01:38:53.340Z,0
2017-03-14T01:39:54.905Z,0
2017-03-14T01:40:56.581Z,0
2017-03-14T01:41:58.207Z,0
2017-03-14T01:42:59.865Z,0
2017-03-14T01:44:01.573Z,0
2017-03-14T01:45:03.352Z,0
2017-03-14T01:46:05.028Z,0
2017-03-14T01:47:06.635Z,0
2017-03-14T01:48:08.274Z,0
2017-03-14T01:49:09.908Z,0
2017-03-14T01:50:11.476Z,0
2017-03-14T01:51:13.167Z,0
2017-03-14T01:52:14.760Z,0
2017-03-14T01:53:16.435Z,0
2017-03-14T01:54:18.024Z,0
2017-03-14T01:55:19.619Z,0
2017-03-14T01:56:21.214Z,0
2017-03-14T01:57:22.854Z,0
2017-03-14T01:58:24.393Z,0
2017-03-14T01:59:26.046Z,0
2017-03-14T02:00:27.647Z,0
2017-03-14T02:01:29.317Z,0
2017-03-14T02:02:30.884Z,0
2017-03-14T02:03:32.600Z,0
2017-03-14T02:04:34.174Z,0
2017-03-14T02:05:35.883Z,0
2017-03-14T02:06:37.508Z,0
2017-03-14T02:07:39.248Z,0
2017-03-14T02:08:40.797Z,0
2017-03-14T02:09:42.397Z,0
2017-03-14T02:10:44.029Z,0
2017-03-14T02:11:45.683Z,0
2017-03-14T02:12:47.271Z,0
2017-03-14T02:13:48.912Z,0
2017-03-14T02:14:50.613Z,0
2017-03-14T02:15:52.237Z,0
2017-03-14T02:16:53.920Z,0
2017-03-14T02:17:55.594Z,0
2017-03-14T02:18:57.284Z,0
2017-03-14T02:19:58.970Z,0
2017-03-14T02:21:00.590Z,0
2017-03-14T02:22:02.336Z,0
2017-03-14T02:23:03.989Z,0
2017-03-14T02:24:05.614Z,0
2017-03-14T02:25:47.025Z,0
2017-03-14T02:26:48.521Z,0
2017-03-14T02:27:49.941Z,0
2017-03-14T02:28:51.383Z,0
2017-03-14T02:29:52.859Z,0
2017-03-14T02:30:54.301Z,0
2017-03-14T02:31:55.754Z,0
2017-03-14T02:32:57.199Z,0
2017-03-14T02:33:58.660Z,0
2017-03-14T02:35:00.135Z,0
2017-03-14T02:36:01.841Z,0
2017-03-14T02:37:03.346Z,0
2017-03-14T02:38:04.773Z,0
2017-03-14T02:39:06.212Z,0
2017-03-14T02:40:07.688Z,0
2017-03-14T02:41:09.157Z,0
2017-03-14T02:42:10.590Z,0
2017-03-14T02:43:12.080Z,0
2017-03-14T02:44:13.588Z,0
2017-03-14T02:45:15.083Z,0
2017-03-14T02:46:16.568Z,0
2017-03-14T02:47:18.059Z,0
2017-03-14T02:48:19.498Z,0
2017-03-14T02:49:20.960Z,0
2017-03-14T02:50:22.434Z,0
2017-03-14T02:51:23.942Z,0
2017-03-14T02:52:25.372Z,0
2017-03-14T02:53:26.825Z,0
2017-03-14T02:54:28.266Z,0
2017-03-14T02:55:29.714Z,0
2017-03-14T02:56:31.137Z,0
2017-03-14T02:57:32.593Z,0
2017-03-14T02:58:34.053Z,0
2017-03-14T02:59:35.475Z,0
2017-03-14T03:00:36.916Z,0
2017-03-14T03:01:38.481Z,0
2017-03-14T03:02:39.934Z,0
2017-03-14T03:04:20.855Z,0
2017-03-14T03:06:02.394Z,0
2017-03-14T03:07:03.849Z,0
2017-03-14T03:08:05.380Z,0
2017-03-14T03:09:06.826Z,0
2017-03-14T03:10:08.315Z,0
2017-03-14T03:11:09.765Z,0
2017-03-14T03:12:11.227Z,0
2017-03-14T03:13:12.702Z,0
2017-03-14T03:14:14.198Z,0
2017-03-14T03:15:15.696Z,0
2017-03-14T03:16:17.179Z,0
2017-03-14T03:17:18.724Z,0
2017-03-14T03:18:20.353Z,0
2017-03-14T03:19:21.891Z,0
2017-03-14T03:20:23.491Z,0
2017-03-14T03:21:25.057Z,0
2017-03-14T03:22:26.646Z,0
2017-03-14T03:23:28.360Z,0
2017-03-14T03:24:29.901Z,0
2017-03-14T03:25:31.524Z,0
2017-03-14T03:26:33.111Z,0
2017-03-14T03:27:34.773Z,0
2017-03-14T03:28:36.371Z,0
2017-03-14T03:29:37.990Z,0
2017-03-14T03:30:39.553Z,0
2017-03-14T03:31:41.189Z,0
2017-03-14T03:32:42.757Z,0
2017-03-14T03:33:44.347Z,0
2017-03-14T03:34:45.946Z,0
2017-03-14T03:35:47.523Z,0
2017-03-14T03:36:49.198Z,0
2017-03-14T03:37:50.840Z,0
2017-03-14T03:38:52.443Z,0
2017-03-14T03:40:08.991Z,0
2017-03-14T03:41:10.771Z,0
2017-03-14T03:42:12.445Z,0
2017-03-14T03:43:14.061Z,0
2017-03-14T03:44:15.696Z,0
2017-03-14T03:45:17.339Z,0
2017-03-14T03:46:18.961Z,0
2017-03-14T03:47:20.627Z,0
2017-03-14T03:48:22.321Z,0
2017-03-14T03:49:23.915Z,0
2017-03-14T03:50:25.527Z,0
2017-03-14T03:51:27.133Z,0
2017-03-14T03:52:28.755Z,0
2017-03-14T03:53:30.339Z,0
2017-03-14T03:54:31.938Z,0
2017-03-14T03:55:33.510Z,0
2017-03-14T03:56:35.119Z,0
2017-03-14T03:57:36.737Z,0
2017-03-14T03:58:38.329Z,0
2017-03-14T03:59:40.015Z,0
2017-03-14T04:00:41.605Z,0
2017-03-14T04:01:43.165Z,0
2017-03-14T04:02:44.793Z,0
2017-03-14T04:03:46.387Z,0
2017-03-14T04:04:47.999Z,0
2017-03-14T04:05:49.666Z,0
2017-03-14T04:06:51.289Z,0
2017-03-14T04:07:52.973Z,0
2017-03-14T04:08:54.557Z,0
2017-03-14T04:09:56.148Z,0
2017-03-14T04:10:57.727Z,0
2017-03-14T04:11:59.316Z,0
2017-03-14T04:13:00.882Z,0
2017-03-14T04:14:02.551Z,0
2017-03-14T04:15:04.190Z,0
2017-03-14T04:16:05.824Z,0
2017-03-14T04:17:07.421Z,0
2017-03-14T04:18:09.021Z,0
2017-03-14T04:19:10.613Z,0
2017-03-14T04:20:12.262Z,0
2017-03-14T04:21:13.825Z,0
2017-03-14T04:22:15.453Z,0
2017-03-14T04:23:17.062Z,0
2017-03-14T04:24:18.742Z,0
2017-03-14T04:25:20.249Z,0
2017-03-14T04:27:01.174Z,0
2017-03-14T04:28:02.648Z,0
2017-03-14T04:29:43.576Z,0
2017-03-14T04:30:45.042Z,0
2017-03-14T04:31:46.508Z,0
2017-03-14T04:32:48.047Z,0
2017-03-14T04:33:49.521Z,0
2017-03-14T04:34:50.967Z,0
2017-03-14T04:35:52.397Z,0
2017-03-14T04:36:53.925Z,0
2017-03-14T04:37:55.461Z,0
2017-03-14T04:38:56.926Z,0
2017-03-14T04:39:58.411Z,0
2017-03-14T04:40:59.915Z,0
2017-03-14T04:42:01.426Z,0
2017-03-14T04:43:03.016Z,0
2017-03-14T04:44:04.668Z,0
2017-03-14T04:45:06.227Z,0
2017-03-14T04:46:07.762Z,0
2017-03-14T04:47:09.386Z,0
2017-03-14T04:48:10.952Z,0
2017-03-14T04:49:12.590Z,0
2017-03-14T04:50:14.186Z,0
2017-03-14T04:51:15.773Z,0
2017-03-14T04:52:17.502Z,0
2017-03-14T04:53:19.106Z,0
2017-03-14T04:54:20.769Z,0
2017-03-14T04:55:22.411Z,0
2017-03-14T04:56:24.008Z,0
2017-03-14T04:57:25.655Z,0
2017-03-14T04:58:27.384Z,0
2017-03-14T04:59:28.986Z,0
2017-03-14T05:00:30.624Z,0
2017-03-14T05:01:32.368Z,0
2017-03-14T05:02:34.062Z,0
2017-03-14T05:03:35.793Z,0
2017-03-14T05:04:37.437Z,0
2017-03-14T05:05:38.978Z,0
2017-03-14T05:06:40.568Z,0
2017-03-14T05:07:42.190Z,0
2017-03-14T05:08:43.834Z,0
2017-03-14T05:09:45.339Z,0
2017-03-14T05:10:46.931Z,0
2017-03-14T05:11:48.548Z,0
2017-03-14T05:12:50.041Z,0
2017-03-14T05:13:51.700Z,0
2017-03-14T05:14:53.248Z,0
2017-03-14T05:15:54.729Z,0
2017-03-14T05:16:56.303Z,0
2017-03-14T05:17:57.912Z,0
2017-03-14T05:18:59.452Z,0
2017-03-14T05:20:01.087Z,0
2017-03-14T05:21:02.664Z,0
2017-03-14T05:22:05.219Z,0
2017-03-14T05:23:07.670Z,0
2017-03-14T05:24:10.370Z,0
2017-03-14T05:25:12.868Z,0
2017-03-14T05:26:15.172Z,0
2017-03-14T05:27:17.852Z,0
2017-03-14T05:28:20.553Z,0
2017-03-14T05:29:23.050Z,0
2017-03-14T05:30:25.539Z,0
2017-03-14T05:31:27.242Z,0
2017-03-14T05:32:29.209Z,0
2017-03-14T05:33:30.877Z,0
2017-03-14T05:34:32.614Z,0
2017-03-14T05:35:34.535Z,0
2017-03-14T05:36:36.348Z,0
2017-03-14T05:37:38.041Z,0
2017-03-14T05:40:41.845Z,0
2017-03-14T05:42:25.731Z,0
2017-03-14T05:44:09.811Z,0
2017-03-14T05:45:11.428Z,0
2017-03-14T05:46:13.325Z,0
2017-03-14T05:47:15.166Z,0
2017-03-14T05:48:17.411Z,0
2017-03-14T05:49:19.249Z,0
2017-03-14T05:50:21.033Z,0
2017-03-14T05:51:22.938Z,0
2017-03-14T05:52:24.720Z,0
2017-03-14T05:53:26.741Z,0
2017-03-14T05:54:31.647Z,0
2017-03-14T07:49:23.214Z,0
2017-03-14T07:50:25.185Z,0
2017-03-14T07:51:27.283Z,0
2017-03-14T07:52:29.485Z,0
2017-03-14T07:53:31.195Z,0
2017-03-14T07:54:32.944Z,0
2017-03-14T07:55:34.685Z,0
2017-03-14T07:56:36.292Z,0
2017-03-14T07:57:38.018Z,0
2017-03-14T07:58:39.625Z,0
2017-03-14T07:59:41.308Z,0
2017-03-14T08:00:43.046Z,0
2017-03-14T08:01:44.800Z,0
2017-03-14T12:09:40.963Z,20
2017-03-14T12:10:42.548Z,0
2017-03-14T12:11:44.487Z,0
2017-03-14T12:12:43.312Z,20
2017-03-14T12:13:44.695Z,5
2017-03-14T12:14:46.173Z,10
2017-03-14T12:15:47.653Z,10
2017-03-14T12:16:49.194Z,10
2017-03-14T12:17:52.178Z,10
2017-03-14T12:18:54.719Z,10
2017-03-14T12:19:57.262Z,10
2017-03-14T12:20:58.906Z,10
2017-03-14T12:22:00.467Z,15
2017-03-14T12:23:02.075Z,20
2017-03-14T12:24:03.630Z,20
2017-03-14T12:25:05.280Z,25
2017-03-14T12:26:06.869Z,20
2017-03-14T12:27:08.628Z,20
2017-03-14T12:28:10.320Z,20
2017-03-14T12:29:11.924Z,15
2017-03-14T12:30:13.476Z,15
2017-03-14T12:31:15.122Z,10
2017-03-14T12:32:16.727Z,10
2017-03-14T12:33:18.500Z,10
2017-03-14T12:34:20.099Z,10
2017-03-14T12:35:21.747Z,10
2017-03-14T12:37:03.114Z,10
2017-03-14T12:38:04.624Z,10
2017-03-14T12:39:06.248Z,10
2017-03-14T12:40:07.729Z,10
2017-03-14T12:41:09.257Z,10
2017-03-14T12:42:10.901Z,20
2017-03-14T12:43:12.512Z,15
2017-03-14T12:44:14.058Z,10
2017-03-14T12:45:15.787Z,10
2017-03-14T12:46:17.479Z,10
2017-03-14T12:47:19.269Z,15
2017-03-14T12:48:20.903Z,30
2017-03-14T12:49:22.584Z,20
2017-03-14T12:50:24.245Z,35
2017-03-14T12:51:25.977Z,20
2017-03-14T12:52:27.769Z,15
2017-03-14T12:53:29.506Z,10
2017-03-14T12:54:31.749Z,10
2017-03-14T12:55:33.852Z,10
2017-03-14T12:56:35.805Z,10
2017-03-14T12:57:38.709Z,5
2017-03-14T12:58:40.780Z,5
2017-03-14T12:59:42.913Z,5
2017-03-14T13:00:45.292Z,10
2017-03-14T13:01:47.129Z,15
2017-03-14T13:02:48.825Z,20
2017-03-14T13:03:50.458Z,80
2017-03-14T13:04:52.398Z,30
2017-03-14T13:05:54.101Z,15
2017-03-14T13:06:55.876Z,45
2017-03-14T13:07:57.524Z,30
2017-03-14T13:08:59.258Z,40
2017-03-14T13:10:00.806Z,20
2017-03-14T13:11:02.651Z,15
2017-03-14T13:12:04.336Z,10
2017-03-14T13:13:06.121Z,10
2017-03-14T13:14:07.846Z,15
2017-03-14T13:15:09.618Z,15
2017-03-14T13:16:11.548Z,30
2017-03-14T13:17:13.171Z,40
2017-03-14T13:18:14.884Z,30
2017-03-14T13:19:16.626Z,35
2017-03-14T13:20:18.280Z,30
2017-03-14T13:21:20.185Z,25
2017-03-14T13:22:21.962Z,200
2017-03-14T13:23:23.760Z,130
2017-03-14T13:24:25.781Z,70
2017-03-14T13:25:27.462Z,65
2017-03-14T13:26:29.230Z,50
2017-03-14T13:27:30.895Z,35
2017-03-14T13:29:12.391Z,30
2017-03-14T13:30:53.345Z,25
2017-03-14T13:31:54.820Z,30
2017-03-14T13:32:56.406Z,25
2017-03-14T13:34:38.688Z,25
2017-03-14T13:35:40.620Z,30
2017-03-14T13:36:42.188Z,35
2017-03-14T13:37:44.012Z,35
2017-03-14T13:38:45.759Z,30
2017-03-14T13:39:47.666Z,30
2017-03-14T13:40:49.667Z,25
2017-03-14T13:41:51.508Z,25
2017-03-14T13:42:53.279Z,25
2017-03-14T13:43:54.914Z,25
2017-03-14T13:44:56.780Z,25
2017-03-14T13:45:58.499Z,25
2017-03-14T13:47:05.526Z,20
2017-03-14T13:48:07.783Z,25
2017-03-14T13:49:09.603Z,15
2017-03-14T13:50:11.201Z,15
2017-03-14T13:51:12.840Z,15
2017-03-14T13:52:14.888Z,10
2017-03-14T13:53:18.332Z,10
2017-03-14T13:54:20.320Z,20
2017-03-14T13:55:21.947Z,20
2017-03-14T13:56:23.614Z,25
2017-03-14T13:57:27.080Z,20
2017-03-14T13:58:29.354Z,20
2017-03-14T13:59:31.445Z,20
2017-03-14T14:00:34.492Z,20
2017-03-14T14:01:36.305Z,15
2017-03-14T14:02:38.038Z,20
2017-03-14T14:03:39.906Z,20
2017-03-14T14:04:41.707Z,20
2017-03-14T14:05:43.431Z,20
2017-03-14T14:06:44.900Z,20
2017-03-14T14:07:46.364Z,15
2017-03-14T14:08:47.958Z,15
2017-03-14T14:09:49.681Z,10
2017-03-14T14:10:51.758Z,15
2017-03-14T14:11:53.441Z,20
2017-03-14T14:12:55.518Z,20
2017-03-14T14:13:58.901Z,20
2017-03-14T14:15:01.272Z,20
2017-03-14T14:16:10.701Z,20
2017-03-14T14:17:12.766Z,15
2017-03-14T14:18:14.737Z,15
2017-03-14T14:19:20.529Z,15
2017-03-14T14:20:23.619Z,15
2017-03-14T14:21:26.087Z,10
2017-03-14T14:22:28.020Z,5
